createdAt,value
2018-12-07T00:01:15.838Z,18.23
2018-12-07T00:03:44.221Z,20.43
2018-12-07T00:06:12.744Z,19.27
2018-12-07T00:08:41.163Z,15.00
2018-12-07T00:11:09.585Z,19.60
2018-12-07T00:13:38.043Z,22.07
2018-12-07T00:16:06.889Z,20.07
2018-12-07T00:18:35.273Z,19.67
2018-12-07T00:21:03.891Z,17.23
2018-12-07T00:23:32.477Z,23.67
2018-12-07T00:26:00.909Z,25.77
2018-12-07T00:28:29.359Z,20.23
2018-12-07T00:30:57.781Z,20.03
2018-12-07T00:33:26.238Z,21.10
2018-12-07T00:35:55.277Z,19.57
2018-12-07T00:38:23.693Z,19.33
2018-12-07T00:40:52.136Z,17.77
2018-12-07T00:43:20.550Z,19.77
2018-12-07T00:45:48.934Z,26.07
2018-12-07T00:48:17.332Z,21.07
2018-12-07T00:50:46.045Z,24.63
2018-12-07T00:53:14.458Z,22.40
2018-12-07T00:55:44.265Z,21.87
2018-12-07T00:58:12.716Z,21.70
2018-12-07T01:00:41.248Z,25.10
2018-12-07T01:03:09.637Z,17.80
2018-12-07T01:05:38.072Z,18.87
2018-12-07T01:08:06.509Z,21.43
2018-12-07T01:10:34.917Z,19.07
2018-12-07T01:13:03.668Z,20.83
2018-12-07T01:15:32.362Z,19.37
2018-12-07T01:18:00.764Z,21.77
2018-12-07T01:20:29.221Z,14.87
2018-12-07T01:22:57.596Z,15.93
2018-12-07T01:25:26.012Z,14.23
2018-12-07T01:27:54.468Z,12.97
2018-12-07T01:30:22.887Z,10.87
2018-12-07T01:32:51.269Z,12.00
2018-12-07T01:35:20.013Z,13.03
2018-12-07T01:37:49.092Z,11.77
2018-12-07T01:40:19.389Z,7.13
2018-12-07T01:42:48.057Z,8.60
2018-12-07T01:45:16.468Z,8.87
2018-12-07T01:47:47.182Z,8.03
2018-12-07T01:50:16.500Z,7.30
2018-12-07T01:52:45.215Z,10.07
2018-12-07T01:55:13.681Z,9.27
2018-12-07T01:57:43.089Z,6.70
2018-12-07T02:00:11.617Z,9.67
2018-12-07T02:02:40.121Z,8.80
2018-12-07T02:05:08.829Z,8.33
2018-12-07T02:07:37.258Z,7.07
2018-12-07T02:10:06.879Z,7.40
2018-12-07T02:12:35.425Z,11.47
2018-12-07T02:15:03.960Z,12.67
2018-12-07T02:17:32.344Z,10.50
2018-12-07T02:20:00.765Z,7.27
2018-12-07T02:22:29.165Z,9.43
2018-12-07T02:24:57.548Z,8.20
2018-12-07T02:27:25.987Z,6.77
2018-12-07T02:29:55.100Z,5.07
2018-12-07T02:32:23.481Z,5.30
2018-12-07T02:34:51.936Z,4.63
2018-12-07T02:37:20.566Z,7.27
2018-12-07T02:39:49.609Z,5.73
2018-12-07T02:42:18.037Z,6.70
2018-12-07T02:44:46.419Z,6.27
2018-12-07T02:47:14.964Z,4.63
2018-12-07T02:49:43.383Z,5.20
2018-12-07T02:52:11.779Z,6.20
2018-12-07T02:54:40.352Z,4.30
2018-12-07T02:57:09.227Z,4.97
2018-12-07T02:59:37.784Z,3.80
2018-12-07T03:02:06.604Z,5.00
2018-12-07T03:04:35.230Z,4.07
2018-12-07T03:07:03.841Z,4.43
2018-12-07T03:09:32.248Z,5.83
2018-12-07T03:12:00.689Z,3.37
2018-12-07T03:14:29.067Z,4.77
2018-12-07T03:16:57.627Z,4.40
2018-12-07T03:19:26.043Z,3.67
2018-12-07T03:21:54.466Z,4.40
2018-12-07T03:24:22.856Z,4.10
2018-12-07T03:26:51.289Z,3.80
2018-12-07T03:29:19.717Z,2.37
2018-12-07T03:31:48.110Z,2.17
2018-12-07T03:34:16.540Z,3.43
2018-12-07T03:36:45.020Z,3.53
2018-12-07T03:39:13.456Z,2.87
2018-12-07T03:41:42.388Z,3.63
2018-12-07T03:44:10.749Z,2.60
2018-12-07T03:46:39.129Z,2.60
2018-12-07T03:49:07.571Z,2.67
2018-12-07T03:51:36.033Z,2.77
2018-12-07T03:54:04.533Z,1.93
2018-12-07T03:56:32.989Z,2.00
2018-12-07T03:59:01.473Z,1.93
2018-12-07T04:01:29.845Z,2.67
2018-12-07T04:03:58.259Z,5.20
2018-12-07T04:06:26.677Z,3.23
2018-12-07T04:08:55.056Z,4.53
2018-12-07T04:11:23.473Z,3.77
2018-12-07T04:13:51.893Z,4.77
2018-12-07T04:16:20.888Z,2.50
2018-12-07T04:18:49.325Z,4.47
2018-12-07T04:21:17.733Z,3.97
2018-12-07T04:23:46.129Z,3.93
2018-12-07T04:26:14.548Z,5.93
2018-12-07T04:28:42.947Z,6.43
2018-12-07T04:31:12.028Z,3.97
2018-12-07T04:33:40.460Z,4.10
2018-12-07T04:36:08.870Z,6.53
2018-12-07T04:38:37.258Z,5.17
2018-12-07T04:41:05.839Z,3.50
2018-12-07T04:43:34.913Z,3.67
2018-12-07T04:46:03.305Z,6.87
2018-12-07T04:48:32.118Z,4.13
2018-12-07T04:51:00.549Z,6.53
2018-12-07T04:53:29.108Z,4.37
2018-12-07T04:55:57.518Z,6.67
2018-12-07T04:58:25.901Z,5.33
2018-12-07T05:00:54.321Z,5.10
2018-12-07T05:03:22.814Z,4.70
2018-12-07T05:05:51.201Z,6.30
2018-12-07T05:08:19.587Z,5.87
2018-12-07T05:10:48.066Z,5.10
2018-12-07T05:13:16.463Z,8.63
2018-12-07T05:15:44.854Z,8.03
2018-12-07T05:18:13.405Z,6.10
2018-12-07T05:20:44.789Z,8.77
2018-12-07T05:23:13.481Z,8.33
2018-12-07T05:25:41.878Z,8.00
2018-12-07T05:28:10.279Z,8.83
2018-12-07T05:30:38.698Z,6.00
2018-12-07T05:33:07.083Z,5.50
2018-12-07T05:35:35.462Z,5.27
2018-12-07T05:38:03.902Z,4.10
2018-12-07T05:40:32.421Z,17.67
2018-12-07T05:43:00.809Z,6.67
2018-12-07T05:45:29.638Z,9.03
2018-12-07T05:47:58.013Z,7.13
2018-12-07T05:50:26.833Z,6.00
2018-12-07T05:52:55.359Z,6.07
2018-12-07T05:55:23.745Z,7.87
2018-12-07T05:57:52.109Z,5.13
2018-12-07T06:00:20.649Z,5.93
2018-12-07T06:02:49.048Z,8.70
2018-12-07T06:05:17.468Z,6.73
2018-12-07T06:07:46.076Z,8.43
2018-12-07T06:10:14.466Z,7.03
2018-12-07T06:12:42.889Z,8.93
2018-12-07T06:15:11.357Z,8.57
2018-12-07T06:17:39.798Z,8.93
2018-12-07T06:20:08.365Z,6.77
2018-12-07T06:22:36.785Z,8.53
2018-12-07T06:25:05.498Z,8.33
2018-12-07T06:27:33.869Z,7.60
2018-12-07T06:30:02.306Z,11.40
2018-12-07T06:32:36.055Z,6.27
2018-12-07T06:35:01.195Z,7.60
2018-12-07T06:37:30.027Z,10.60
2018-12-07T06:39:58.403Z,11.00
2018-12-07T06:42:27.097Z,7.87
2018-12-07T06:44:55.607Z,7.17
2018-12-07T06:47:24.285Z,12.20
2018-12-07T06:49:52.705Z,8.27
2018-12-07T06:52:21.157Z,9.33
2018-12-07T06:54:49.557Z,8.47
2018-12-07T06:57:17.965Z,6.13
2018-12-07T06:59:46.444Z,7.83
2018-12-07T07:02:14.976Z,7.67
2018-12-07T07:04:43.647Z,7.90
2018-12-07T07:07:12.056Z,7.33
2018-12-07T07:09:40.450Z,7.17
2018-12-07T07:12:08.946Z,11.03
2018-12-07T07:14:37.406Z,9.40
2018-12-07T07:17:05.996Z,7.80
2018-12-07T07:19:34.369Z,7.73
2018-12-07T07:22:02.878Z,10.57
2018-12-07T07:24:31.379Z,11.30
2018-12-07T07:27:00.089Z,9.17
2018-12-07T07:29:28.524Z,8.33
2018-12-07T07:31:56.900Z,10.23
2018-12-07T07:34:25.516Z,9.47
2018-12-07T07:36:54.040Z,10.37
2018-12-07T07:39:22.466Z,8.30
2018-12-07T07:41:50.974Z,9.50
2018-12-07T07:44:19.409Z,8.93
2018-12-07T07:46:48.119Z,10.27
2018-12-07T07:49:23.545Z,9.10
2018-12-07T07:51:51.937Z,9.40
2018-12-07T07:54:21.171Z,10.47
2018-12-07T07:56:49.766Z,9.20
2018-12-07T07:59:18.153Z,10.63
2018-12-07T08:01:46.610Z,8.57
2018-12-07T08:04:15.649Z,10.03
2018-12-07T08:06:44.042Z,10.27
2018-12-07T08:09:12.413Z,12.30
2018-12-07T08:11:40.809Z,12.80
2018-12-07T08:14:09.213Z,13.73
2018-12-07T08:16:37.617Z,13.80
2018-12-07T08:19:06.208Z,11.93
2018-12-07T08:21:34.606Z,12.97
2018-12-07T08:24:03.009Z,13.80
2018-12-07T08:26:31.598Z,13.07
2018-12-07T08:28:59.976Z,13.67
2018-12-07T08:31:28.429Z,11.63
2018-12-07T08:33:56.877Z,11.60
2018-12-07T08:36:25.393Z,13.27
2018-12-07T08:38:53.762Z,9.87
2018-12-07T08:41:22.236Z,12.47
2018-12-07T08:43:50.675Z,14.93
2018-12-07T08:46:19.221Z,10.93
2018-12-07T08:48:47.697Z,13.53
2018-12-07T08:51:16.993Z,14.97
2018-12-07T08:53:45.646Z,12.47
2018-12-07T08:56:14.255Z,11.83
2018-12-07T08:58:42.844Z,12.53
2018-12-07T09:01:11.281Z,13.53
2018-12-07T09:03:39.843Z,14.83
2018-12-07T09:06:08.219Z,11.33
2018-12-07T09:08:36.613Z,13.63
2018-12-07T09:11:05.151Z,13.97
2018-12-07T09:13:33.658Z,13.77
2018-12-07T09:16:02.153Z,13.37
2018-12-07T09:18:30.585Z,14.70
2018-12-07T09:20:58.969Z,12.73
2018-12-07T09:23:27.405Z,12.97
2018-12-07T09:25:55.926Z,17.17
2018-12-07T09:28:24.341Z,14.53
2018-12-07T09:30:54.037Z,15.70
2018-12-07T09:33:22.687Z,14.93
2018-12-07T09:35:51.094Z,14.93
2018-12-07T09:38:19.490Z,15.50
2018-12-07T09:40:48.203Z,17.30
2018-12-07T09:43:16.997Z,17.37
2018-12-07T09:45:45.444Z,20.23
2018-12-07T09:48:14.060Z,20.27
2018-12-07T09:50:43.137Z,18.67
2018-12-07T09:53:12.001Z,22.03
2018-12-07T09:55:40.418Z,22.03
2018-12-07T09:58:08.844Z,17.17
2018-12-07T10:00:37.261Z,21.40
2018-12-07T10:03:06.275Z,18.60
2018-12-07T10:05:34.672Z,20.80
2018-12-07T10:08:03.164Z,22.13
2018-12-07T10:10:32.074Z,22.73
2018-12-07T10:13:07.706Z,24.73
2018-12-07T10:15:31.257Z,29.13
2018-12-07T10:17:59.663Z,23.57
2018-12-07T10:20:28.064Z,54.17
2018-12-07T10:22:56.500Z,29.53
2018-12-07T10:25:25.030Z,33.53
2018-12-07T10:27:54.626Z,29.47
2018-12-07T10:30:23.141Z,29.17
2018-12-07T10:32:52.982Z,33.07
2018-12-07T10:35:21.566Z,30.10
2018-12-07T10:37:49.981Z,37.23
2018-12-07T10:40:18.350Z,32.87
2018-12-07T10:42:46.909Z,39.80
2018-12-07T10:45:15.359Z,28.23
2018-12-07T10:47:50.082Z,34.50
2018-12-07T10:50:14.402Z,31.33
2018-12-07T10:52:42.968Z,28.77
2018-12-07T10:55:11.891Z,29.37
2018-12-07T10:57:40.815Z,25.07
2018-12-07T11:00:22.747Z,24.87
2018-12-07T11:02:52.674Z,21.97
2018-12-07T11:05:26.355Z,22.30
2018-12-07T11:07:59.974Z,19.03
2018-12-07T11:10:33.699Z,20.17
2018-12-07T11:13:07.392Z,17.10
2018-12-07T11:15:41.265Z,17.43
2018-12-07T11:18:14.831Z,23.60
2018-12-07T11:20:48.867Z,23.00
2018-12-07T11:23:22.601Z,28.73
2018-12-07T11:25:56.096Z,24.53
2018-12-07T11:28:29.711Z,23.80
2018-12-07T11:31:03.593Z,21.47
2018-12-07T11:33:37.319Z,20.53
2018-12-07T11:36:08.268Z,24.13
2018-12-07T11:38:37.057Z,23.27
2018-12-07T11:41:05.739Z,23.37
2018-12-07T11:43:35.511Z,21.20
2018-12-07T11:46:03.901Z,25.20
2018-12-07T11:48:32.347Z,30.37
2018-12-07T11:51:00.761Z,30.57
2018-12-07T11:53:29.189Z,16.10
2018-12-07T11:55:58.378Z,16.17
2018-12-07T11:58:26.805Z,19.03
2018-12-07T12:00:55.205Z,14.50
2018-12-07T12:03:23.665Z,17.13
2018-12-07T12:05:52.068Z,15.80
2018-12-07T12:08:20.473Z,20.30
2018-12-07T12:10:49.030Z,22.53
2018-12-07T12:13:17.437Z,20.80
2018-12-07T12:15:46.164Z,18.83
2018-12-07T12:18:14.677Z,23.27
2018-12-07T12:20:43.233Z,25.60
2018-12-07T12:23:11.636Z,26.10
2018-12-07T12:25:40.098Z,27.53
2018-12-07T12:28:08.509Z,32.20
2018-12-07T12:30:36.893Z,22.90
2018-12-07T12:33:06.380Z,19.53
2018-12-07T12:35:34.789Z,17.83
2018-12-07T12:38:03.669Z,18.37
2018-12-07T12:40:32.115Z,18.63
2018-12-07T12:43:00.597Z,22.37
2018-12-07T12:45:29.120Z,21.60
2018-12-07T12:47:57.564Z,18.27
2018-12-07T12:50:31.282Z,19.90
2018-12-07T12:52:59.801Z,23.67
2018-12-07T12:55:28.193Z,21.83
2018-12-07T12:57:57.406Z,22.40
2018-12-07T13:00:26.612Z,19.90
2018-12-07T13:02:55.695Z,20.20
2018-12-07T13:05:24.621Z,17.27
2018-12-07T13:07:53.085Z,18.47
2018-12-07T13:10:21.521Z,17.43
2018-12-07T13:12:49.911Z,17.67
2018-12-07T13:15:18.359Z,18.83
2018-12-07T13:17:46.837Z,18.53
2018-12-07T13:20:15.272Z,19.87
2018-12-07T13:22:43.720Z,24.00
2018-12-07T13:25:12.109Z,24.00
2018-12-07T13:27:40.755Z,25.03
2018-12-07T13:30:10.270Z,24.13
2018-12-07T13:32:38.687Z,26.77
2018-12-07T13:35:07.105Z,30.13
2018-12-07T13:37:36.427Z,36.27
2018-12-07T13:40:05.681Z,32.57
2018-12-07T13:42:34.236Z,33.73
2018-12-07T13:45:04.613Z,39.53
2018-12-07T13:47:33.811Z,33.63
2018-12-07T13:50:08.097Z,33.90
2018-12-07T13:52:36.806Z,36.90
2018-12-07T13:55:05.821Z,43.63
2018-12-07T13:57:34.263Z,34.80
2018-12-07T14:00:02.831Z,33.67
2018-12-07T14:02:31.298Z,33.37
2018-12-07T14:05:00.415Z,29.63
2018-12-07T14:07:29.628Z,36.00
2018-12-07T14:09:58.101Z,32.53
2018-12-07T14:12:26.696Z,33.57
2018-12-07T14:14:55.082Z,36.73
2018-12-07T14:17:23.519Z,27.37
2018-12-07T14:19:52.448Z,24.87
2018-12-07T14:22:21.126Z,20.53
2018-12-07T14:24:49.916Z,22.03
2018-12-07T14:27:18.685Z,22.00
2018-12-07T14:29:47.468Z,21.17
2018-12-07T14:32:16.059Z,19.23
2018-12-07T14:34:44.693Z,19.50
2018-12-07T14:37:13.227Z,19.70
2018-12-07T14:39:41.720Z,23.27
2018-12-07T14:42:10.259Z,23.07
2018-12-07T14:44:38.940Z,21.50
2018-12-07T14:47:07.450Z,20.03
2018-12-07T14:49:36.027Z,21.17
2018-12-07T14:52:04.877Z,20.50
2018-12-07T14:54:33.369Z,24.20
2018-12-07T14:57:02.141Z,22.43
2018-12-07T14:59:30.897Z,25.20
2018-12-07T15:01:59.799Z,26.40
2018-12-07T15:04:28.427Z,26.30
2018-12-07T15:06:57.142Z,19.63
2018-12-07T15:09:25.956Z,25.00
2018-12-07T15:11:54.829Z,25.23
2018-12-07T15:14:23.403Z,29.00
2018-12-07T15:16:52.476Z,38.47
2018-12-07T15:19:21.123Z,78.50
2018-12-07T15:21:49.747Z,105.27
2018-12-07T15:24:18.227Z,79.03
2018-12-07T15:26:47.754Z,68.37
2018-12-07T15:29:17.003Z,95.60
2018-12-07T15:31:45.519Z,107.60
2018-12-07T15:34:14.247Z,218.67
2018-12-07T15:36:42.790Z,98.03
2018-12-07T15:39:11.833Z,114.43
2018-12-07T15:41:41.157Z,52.43
2018-12-07T15:44:10.249Z,66.17
2018-12-07T15:46:39.563Z,47.03
2018-12-07T15:49:09.025Z,35.33
2018-12-07T15:51:37.575Z,37.00
2018-12-07T15:54:06.089Z,37.50
2018-12-07T15:56:34.668Z,50.53
2018-12-07T15:59:03.329Z,37.50
2018-12-07T16:01:32.151Z,43.17
2018-12-07T16:04:01.053Z,39.70
2018-12-07T16:06:29.709Z,34.87
2018-12-07T16:08:58.840Z,46.87
2018-12-07T16:11:27.729Z,22.00
2018-12-07T16:13:56.477Z,23.57
2018-12-07T16:16:25.186Z,23.80
2018-12-07T16:18:53.791Z,24.90
2018-12-07T16:21:22.318Z,31.70
2018-12-07T16:23:51.110Z,36.30
2018-12-07T16:26:20.002Z,37.50
2018-12-07T16:28:48.818Z,30.53
2018-12-07T16:31:17.432Z,35.60
2018-12-07T16:33:46.122Z,39.70
2018-12-07T16:36:14.988Z,36.70
2018-12-07T16:38:43.573Z,28.37
2018-12-07T16:41:12.902Z,30.07
2018-12-07T16:43:41.672Z,36.33
2018-12-07T16:46:10.635Z,31.77
2018-12-07T16:48:39.210Z,28.80
2018-12-07T16:51:08.528Z,33.10
2018-12-07T16:53:37.180Z,31.40
2018-12-07T16:56:05.910Z,39.03
2018-12-07T16:58:35.021Z,31.10
2018-12-07T17:01:03.978Z,25.23
2018-12-07T17:03:32.834Z,25.60
2018-12-07T17:06:01.585Z,23.93
2018-12-07T17:08:30.966Z,23.53
2018-12-07T17:10:59.856Z,23.90
2018-12-07T17:13:29.150Z,28.53
2018-12-07T17:15:58.020Z,29.30
2018-12-07T17:18:26.514Z,26.17
2018-12-07T17:20:55.248Z,29.73
2018-12-07T17:23:25.871Z,23.63
2018-12-07T17:25:54.679Z,21.73
2018-12-07T17:28:23.214Z,23.07
2018-12-07T17:30:51.677Z,20.10
2018-12-07T17:33:20.111Z,19.13
2018-12-07T17:35:49.033Z,19.80
2018-12-07T17:38:17.651Z,19.30
2018-12-07T17:40:46.470Z,21.10
2018-12-07T17:43:14.975Z,18.70
2018-12-07T17:45:43.741Z,21.17
2018-12-07T17:48:12.605Z,20.00
2018-12-07T17:50:41.070Z,22.87
2018-12-07T17:53:09.772Z,21.97
2018-12-07T17:55:38.540Z,18.23
2018-12-07T17:58:07.250Z,20.83
2018-12-07T18:00:36.099Z,22.43
2018-12-07T18:03:04.896Z,20.87
2018-12-07T18:05:33.503Z,17.43
2018-12-07T18:08:02.449Z,17.03
2018-12-07T18:10:31.247Z,17.30
2018-12-07T18:12:59.912Z,16.73
2018-12-07T18:15:29.111Z,21.23
2018-12-07T18:17:57.541Z,22.17
2018-12-07T18:20:26.129Z,23.17
2018-12-07T18:22:55.375Z,22.17
2018-12-07T18:25:23.928Z,24.33
2018-12-07T18:27:52.395Z,22.87
2018-12-07T18:30:20.972Z,25.30
2018-12-07T18:32:49.621Z,21.10
2018-12-07T18:35:19.139Z,24.03
2018-12-07T18:37:47.700Z,25.33
2018-12-07T18:40:16.329Z,28.63
2018-12-07T18:42:44.745Z,25.23
2018-12-07T18:45:13.410Z,25.97
2018-12-07T18:47:42.088Z,23.07
2018-12-07T18:50:10.865Z,21.60
2018-12-07T18:52:40.887Z,24.80
2018-12-07T18:55:10.660Z,22.43
2018-12-07T18:57:39.904Z,22.00
2018-12-07T19:00:09.469Z,22.60
2018-12-07T19:02:38.151Z,21.57
2018-12-07T19:05:06.807Z,27.77
2018-12-07T19:07:35.462Z,25.73
2018-12-07T19:10:04.952Z,24.67
2018-12-07T19:12:33.393Z,41.60
2018-12-07T19:15:01.906Z,26.40
2018-12-07T19:17:31.317Z,22.20
2018-12-07T19:19:59.925Z,22.37
2018-12-07T19:22:28.594Z,25.37
2018-12-07T19:24:57.390Z,23.57
2018-12-07T19:27:25.929Z,20.47
2018-12-07T19:29:54.329Z,21.27
2018-12-07T19:32:23.241Z,22.77
2018-12-07T19:34:51.859Z,22.10
2018-12-07T19:37:20.931Z,24.60
2018-12-07T19:39:49.674Z,23.07
2018-12-07T19:42:18.675Z,23.13
2018-12-07T19:44:48.550Z,22.63
2018-12-07T19:47:17.129Z,24.73
2018-12-07T19:49:45.941Z,26.47
2018-12-07T19:52:14.831Z,24.63
2018-12-07T19:54:44.237Z,26.87
2018-12-07T19:57:12.867Z,26.27
2018-12-07T19:59:41.616Z,27.87
2018-12-07T20:02:10.157Z,26.63
2018-12-07T20:04:38.718Z,28.47
2018-12-07T20:07:07.380Z,30.27
2018-12-07T20:09:36.125Z,32.23
2018-12-07T20:12:04.921Z,31.67
2018-12-07T20:14:33.589Z,32.07
2018-12-07T20:17:02.493Z,33.67
2018-12-07T20:19:31.486Z,31.13
2018-12-07T20:22:01.157Z,29.70
2018-12-07T20:24:29.588Z,30.77
2018-12-07T20:26:58.035Z,27.47
2018-12-07T20:29:26.439Z,29.23
2018-12-07T20:31:55.035Z,32.40
2018-12-07T20:34:23.599Z,33.90
2018-12-07T20:36:52.277Z,32.93
2018-12-07T20:39:21.155Z,23.53
2018-12-07T20:41:49.770Z,18.70
2018-12-07T20:44:18.230Z,17.33
2018-12-07T20:46:46.813Z,17.70
2018-12-07T20:49:16.052Z,16.23
2018-12-07T20:51:44.831Z,17.80
2018-12-07T20:54:14.399Z,17.20
2018-12-07T20:56:42.981Z,14.23
2018-12-07T20:59:11.594Z,16.47
2018-12-07T21:01:40.262Z,15.33
2018-12-07T21:04:25.045Z,17.00
2018-12-07T21:07:32.259Z,16.47
2018-12-07T21:12:23.376Z,16.33
2018-12-07T21:14:54.110Z,19.40
2018-12-07T21:17:30.290Z,18.00
2018-12-07T21:20:11.965Z,18.00
2018-12-07T21:22:40.596Z,18.13
2018-12-07T21:25:09.209Z,23.60
2018-12-07T21:27:37.894Z,13.77
2018-12-07T21:30:23.201Z,17.47
2018-12-07T21:32:52.317Z,16.57
2018-12-07T21:35:20.812Z,15.93
2018-12-07T21:37:49.644Z,17.13
2018-12-07T21:40:22.590Z,13.27
2018-12-07T21:42:51.113Z,17.77
2018-12-07T21:45:19.695Z,13.60
2018-12-07T21:48:26.974Z,16.17
2018-12-07T21:51:17.858Z,14.23
2018-12-07T21:53:46.540Z,13.97
2018-12-07T21:56:14.990Z,15.63
2018-12-07T21:58:43.408Z,15.47
2018-12-07T22:01:11.928Z,16.83
2018-12-07T22:03:40.765Z,17.80
2018-12-07T22:06:09.686Z,16.37
2018-12-07T22:08:38.211Z,20.33
2018-12-07T22:11:07.350Z,17.93
2018-12-07T22:13:36.251Z,19.27
2018-12-07T22:16:04.932Z,19.87
2018-12-07T22:18:33.357Z,28.07
2018-12-07T22:21:02.111Z,24.70
2018-12-07T22:23:30.988Z,25.20
2018-12-07T22:25:59.574Z,24.73
2018-12-07T22:28:28.554Z,23.70
2018-12-07T22:30:57.354Z,25.90
2018-12-07T22:33:25.989Z,24.40
2018-12-07T22:35:54.692Z,25.87
2018-12-07T22:38:23.410Z,31.17
2018-12-07T22:40:52.176Z,28.77
2018-12-07T22:43:20.984Z,33.23
2018-12-07T22:45:49.643Z,30.53
2018-12-07T22:48:18.283Z,32.03
2018-12-07T22:50:46.888Z,33.13
2018-12-07T22:53:15.322Z,26.17
2018-12-07T22:55:43.989Z,30.73
2018-12-07T22:58:12.369Z,32.23
2018-12-07T23:00:44.426Z,32.77
2018-12-07T23:03:13.138Z,30.77
2018-12-07T23:05:41.555Z,32.43
2018-12-07T23:08:10.112Z,36.90
2018-12-07T23:10:39.021Z,43.50
2018-12-07T23:13:07.748Z,42.30
2018-12-07T23:15:36.434Z,57.80
2018-12-07T23:18:04.837Z,42.30
2018-12-07T23:20:33.289Z,43.53
2018-12-07T23:23:03.007Z,46.23
2018-12-07T23:25:31.397Z,55.87
2018-12-07T23:28:00.329Z,79.27
2018-12-07T23:30:28.849Z,49.97
2018-12-07T23:32:57.239Z,50.23
2018-12-07T23:35:25.665Z,60.53
2018-12-07T23:37:54.087Z,72.03
2018-12-07T23:40:22.485Z,52.13
2018-12-07T23:42:53.618Z,65.33
2018-12-07T23:45:22.113Z,79.03
2018-12-07T23:47:50.775Z,73.53
2018-12-07T23:50:19.186Z,82.63
2018-12-07T23:52:47.701Z,68.33
2018-12-07T23:55:16.251Z,76.97
2018-12-07T23:57:44.645Z,62.27
